Arklow Raider — EIXS — position and weather

sailwx.info

Track history (hours):
 
Tides and Currents Weather Stations Pressure Air Temp Water Temp Dewpoint Dewpoint Depression Visibility Wind Speed Wind Dir Waves Ship Positions

Arklow Raider

Last reported at 2015-Mar-27 11:31 UTC. Time now 2015-Mar-27 11:57 UTC.
Position N 52°24' E 004°52'.

Length 90 m; draft 5.5 m.

Type: Ship. MMSI: 250001268.

Date/timePositionNaut miles runAvg speedWind from/ knotsBaromVisibWave heightAir tempDewpointWater temp
2015-Mar-27 11:31N 52°24' E 004°52'0 0.0
2015-Mar-27 10:31N 52°24' E 004°52'0 0.0
2015-Mar-27 09:31N 52°24' E 004°52'0 0.0
2015-Mar-27 08:31N 52°24' E 004°52'0 0.0
2015-Mar-27 07:31N 52°24' E 004°52'0 0.0
2015-Mar-27 06:31N 52°24' E 004°52'0 0.0
2015-Mar-27 05:31N 52°24' E 004°52'0 0.0
2015-Mar-27 04:31N 52°24' E 004°52'0 0.0
2015-Mar-27 03:31N 52°24' E 004°52'0 0.0
2015-Mar-27 02:31N 52°24' E 004°52'0 0.0
2015-Mar-27 01:31N 52°24' E 004°52'0 0.0
2015-Mar-27 00:31N 52°24' E 004°52'0 0.0
2015-Mar-26 23:31N 52°24' E 004°52'0 0.0
2015-Mar-26 22:31N 52°24' E 004°52'0 0.0
2015-Mar-26 21:31N 52°24' E 004°52'0 0.0
2015-Mar-26 20:31N 52°24' E 004°52'0 0.0
2015-Mar-26 19:31N 52°24' E 004°52'0 0.0
2015-Mar-26 18:31N 52°24' E 004°52'0 0.0
2015-Mar-26 17:31N 52°24' E 004°52'0 0.0
2015-Mar-26 16:31N 52°24' E 004°52'0 0.0
2015-Mar-26 15:31N 52°24' E 004°52'0 0.0
2015-Mar-26 14:31N 52°24' E 004°52'0 0.1
2015-Mar-26 13:34N 52°24' E 004°52'0 0.3
2015-Mar-26 12:32N 52°24' E 004°52'0 0.0
2015-Mar-26 11:32N 52°24' E 004°52'0 0.0
2015-Mar-26 10:32N 52°24' E 004°52'0 0.0
2015-Mar-26 09:32N 52°24' E 004°52'0 0.0
2015-Mar-26 08:32N 52°24' E 004°52'0 0.0
2015-Mar-26 07:32N 52°24' E 004°52'0 0.0
2015-Mar-26 06:32N 52°24' E 004°52'0 0.0
2015-Mar-26 05:32N 52°24' E 004°52'0 0.0
2015-Mar-26 04:32N 52°24' E 004°52'0 0.0
2015-Mar-26 03:32N 52°24' E 004°52'0 0.0
2015-Mar-26 02:32N 52°24' E 004°52'0 0.0
2015-Mar-26 01:32N 52°24' E 004°52'0 0.0
2015-Mar-26 00:32N 52°24' E 004°52'0 0.0
2015-Mar-25 23:32N 52°24' E 004°52'0 0.0
2015-Mar-25 22:32N 52°24' E 004°52'0 0.0
2015-Mar-25 21:32N 52°24' E 004°52'0 0.0
2015-Mar-25 20:32N 52°24' E 004°52'0 0.0
2015-Mar-25 19:32N 52°24' E 004°52'0 0.0
2015-Mar-25 18:32N 52°24' E 004°52'0 0.0
2015-Mar-25 17:32N 52°24' E 004°52'0 0.0
2015-Mar-25 16:32N 52°24' E 004°52'0 0.0
2015-Mar-25 15:32N 52°24' E 004°52'0 0.0
2015-Mar-25 14:32N 52°24' E 004°52'0 0.0
2015-Mar-25 13:32N 52°24' E 004°52'0 0.0
2015-Mar-25 12:32N 52°24' E 004°52'0 0.0
2015-Mar-25 11:32N 52°24' E 004°52'0 0.0
2015-Mar-25 10:32N 52°24' E 004°52'1 1.0
2015-Mar-25 09:33N 52°25' E 004°52'1010.0
2015-Mar-25 08:33N 52°28' E 004°36'7 7.3
2015-Mar-25 07:34N 52°28' E 004°24'7 6.9
2015-Mar-25 06:34N 52°22' E 004°19'8 8.0
2015-Mar-25 05:34N 52°15' E 004°14'1111.4
2015-Mar-25 04:34N 52°06' E 004°03'7 7.1
2015-Mar-25 03:33N 51°59' E 004°06'1212.1
2015-Mar-25 02:33N 51°51' E 004°21'1111.2
2015-Mar-25 01:33N 51°46' E 004°38'5 3.4
2015-Mar-25 00:10N 51°41' E 004°36'0 0.0
2015-Mar-24 23:31N 51°41' E 004°36'0 0.0
2015-Mar-24 22:19N 51°41' E 004°36'0 0.0
2015-Mar-24 21:19N 51°41' E 004°36'0 0.0
2015-Mar-24 20:31N 51°41' E 004°36'0 0.0
2015-Mar-24 19:13N 51°41' E 004°36'0 0.0
2015-Mar-24 16:28N 51°41' E 004°36'0 0.0
2015-Mar-24 14:30N 51°41' E 004°36'6 6.0
2015-Mar-24 13:34N 51°47' E 004°38'7 7.5
2015-Mar-24 12:34N 51°50' E 004°27'8 8.0
2015-Mar-24 11:33N 51°54' E 004°16'9 8.8
2015-Mar-24 10:33N 51°59' E 004°04'1010.3
2015-Mar-24 09:33N 52°02' E 003°47'8 1.2
2015-Mar-24 03:13N 52°09' E 003°42'0 0.0
2015-Mar-24 02:16N 52°09' E 003°42'0 0.1
2015-Mar-24 00:25N 52°09' E 003°42'0 0.0
2015-Mar-23 22:07N 52°09' E 003°42'0 0.1
2015-Mar-23 20:13N 52°09' E 003°42'0 0.0
2015-Mar-23 18:04N 52°09' E 003°42'0 0.0
2015-Mar-23 15:25N 52°09' E 003°42'0 0.0
2015-Mar-23 14:16N 52°09' E 003°42'0 0.1
2015-Mar-23 13:28N 52°09' E 003°42'0 0.0
2015-Mar-23 11:20N 52°09' E 003°42'0 0.0
2015-Mar-23 09:06N 52°08' E 003°42'4 5.6
2015-Mar-23 08:26N 52°11' E 003°46'7 7.7
2015-Mar-23 07:32N 52°18' E 003°48'8 8.3
2015-Mar-23 06:31N 52°27' E 003°50'7 7.5
2015-Mar-23 05:33N 52°34' E 003°53'96 7.9
2015-Mar-22 17:21N 54°03' E 004°51'285 8.7
2015-Mar-21 08:32N 58°48' E 005°17'9 8.8
2015-Mar-21 07:33N 58°57' E 005°18'9 9.0
2015-Mar-21 06:33N 59°06' E 005°19'1110.5
2015-Mar-21 05:29N 59°17' E 005°20'12 9.9
2015-Mar-21 04:17N 59°28' E 005°13'  
Track history (hours):
 
Tides and Currents Weather Stations Pressure Air Temp Water Temp Dewpoint Dewpoint Depression Visibility Wind Speed Wind Dir Waves Ship Positions

Arklow Raider

Last reported at 2015-Mar-27 11:31 UTC. Time now 2015-Mar-27 11:57 UTC.
Position N 52°24' E 004°52'.

Length 90 m; draft 5.5 m.

Type: Ship. MMSI: 250001268.

Date/timePositionNaut miles runAvg speedWind from/ knotsBaromVisibWave heightAir tempDewpointWater temp
2015-Mar-27 11:31N 52°24' E 004°52'0 0.0
2015-Mar-27 10:31N 52°24' E 004°52'0 0.0
2015-Mar-27 09:31N 52°24' E 004°52'0 0.0
2015-Mar-27 08:31N 52°24' E 004°52'0 0.0
2015-Mar-27 07:31N 52°24' E 004°52'0 0.0
2015-Mar-27 06:31N 52°24' E 004°52'0 0.0
2015-Mar-27 05:31N 52°24' E 004°52'0 0.0
2015-Mar-27 04:31N 52°24' E 004°52'0 0.0
2015-Mar-27 03:31N 52°24' E 004°52'0 0.0
2015-Mar-27 02:31N 52°24' E 004°52'0 0.0
2015-Mar-27 01:31N 52°24' E 004°52'0 0.0
2015-Mar-27 00:31N 52°24' E 004°52'0 0.0
2015-Mar-26 23:31N 52°24' E 004°52'0 0.0
2015-Mar-26 22:31N 52°24' E 004°52'0 0.0
2015-Mar-26 21:31N 52°24' E 004°52'0 0.0
2015-Mar-26 20:31N 52°24' E 004°52'0 0.0
2015-Mar-26 19:31N 52°24' E 004°52'0 0.0
2015-Mar-26 18:31N 52°24' E 004°52'0 0.0
2015-Mar-26 17:31N 52°24' E 004°52'0 0.0
2015-Mar-26 16:31N 52°24' E 004°52'0 0.0
2015-Mar-26 15:31N 52°24' E 004°52'0 0.0
2015-Mar-26 14:31N 52°24' E 004°52'0 0.1
2015-Mar-26 13:34N 52°24' E 004°52'0 0.3
2015-Mar-26 12:32N 52°24' E 004°52'0 0.0
2015-Mar-26 11:32N 52°24' E 004°52'0 0.0
2015-Mar-26 10:32N 52°24' E 004°52'0 0.0
2015-Mar-26 09:32N 52°24' E 004°52'0 0.0
2015-Mar-26 08:32N 52°24' E 004°52'0 0.0
2015-Mar-26 07:32N 52°24' E 004°52'0 0.0
2015-Mar-26 06:32N 52°24' E 004°52'0 0.0
2015-Mar-26 05:32N 52°24' E 004°52'0 0.0
2015-Mar-26 04:32N 52°24' E 004°52'0 0.0
2015-Mar-26 03:32N 52°24' E 004°52'0 0.0
2015-Mar-26 02:32N 52°24' E 004°52'0 0.0
2015-Mar-26 01:32N 52°24' E 004°52'0 0.0
2015-Mar-26 00:32N 52°24' E 004°52'0 0.0
2015-Mar-25 23:32N 52°24' E 004°52'0 0.0
2015-Mar-25 22:32N 52°24' E 004°52'0 0.0
2015-Mar-25 21:32N 52°24' E 004°52'0 0.0
2015-Mar-25 20:32N 52°24' E 004°52'0 0.0
2015-Mar-25 19:32N 52°24' E 004°52'0 0.0
2015-Mar-25 18:32N 52°24' E 004°52'0 0.0
2015-Mar-25 17:32N 52°24' E 004°52'0 0.0
2015-Mar-25 16:32N 52°24' E 004°52'0 0.0
2015-Mar-25 15:32N 52°24' E 004°52'0 0.0
2015-Mar-25 14:32N 52°24' E 004°52'0 0.0
2015-Mar-25 13:32N 52°24' E 004°52'0 0.0
2015-Mar-25 12:32N 52°24' E 004°52'0 0.0
2015-Mar-25 11:32N 52°24' E 004°52'0 0.0
2015-Mar-25 10:32N 52°24' E 004°52'1 1.0
2015-Mar-25 09:33N 52°25' E 004°52'1010.0
2015-Mar-25 08:33N 52°28' E 004°36'7 7.3
2015-Mar-25 07:34N 52°28' E 004°24'7 6.9
2015-Mar-25 06:34N 52°22' E 004°19'8 8.0
2015-Mar-25 05:34N 52°15' E 004°14'1111.4
2015-Mar-25 04:34N 52°06' E 004°03'7 7.1
2015-Mar-25 03:33N 51°59' E 004°06'1212.1
2015-Mar-25 02:33N 51°51' E 004°21'1111.2
2015-Mar-25 01:33N 51°46' E 004°38'5 3.4
2015-Mar-25 00:10N 51°41' E 004°36'0 0.0
2015-Mar-24 23:31N 51°41' E 004°36'0 0.0
2015-Mar-24 22:19N 51°41' E 004°36'0 0.0
2015-Mar-24 21:19N 51°41' E 004°36'0 0.0
2015-Mar-24 20:31N 51°41' E 004°36'0 0.0
2015-Mar-24 19:13N 51°41' E 004°36'0 0.0
2015-Mar-24 16:28N 51°41' E 004°36'0 0.0
2015-Mar-24 14:30N 51°41' E 004°36'6 6.0
2015-Mar-24 13:34N 51°47' E 004°38'7 7.5
2015-Mar-24 12:34N 51°50' E 004°27'8 8.0
2015-Mar-24 11:33N 51°54' E 004°16'9 8.8
2015-Mar-24 10:33N 51°59' E 004°04'1010.3
2015-Mar-24 09:33N 52°02' E 003°47'8 1.2
2015-Mar-24 03:13N 52°09' E 003°42'0 0.0
2015-Mar-24 02:16N 52°09' E 003°42'0 0.1
2015-Mar-24 00:25N 52°09' E 003°42'0 0.0
2015-Mar-23 22:07N 52°09' E 003°42'0 0.1
2015-Mar-23 20:13N 52°09' E 003°42'0 0.0
2015-Mar-23 18:04N 52°09' E 003°42'0 0.0
2015-Mar-23 15:25N 52°09' E 003°42'0 0.0
2015-Mar-23 14:16N 52°09' E 003°42'0 0.1
2015-Mar-23 13:28N 52°09' E 003°42'0 0.0
2015-Mar-23 11:20N 52°09' E 003°42'0 0.0
2015-Mar-23 09:06N 52°08' E 003°42'4 5.6
2015-Mar-23 08:26N 52°11' E 003°46'7 7.7
2015-Mar-23 07:32N 52°18' E 003°48'8 8.3
2015-Mar-23 06:31N 52°27' E 003°50'7 7.5
2015-Mar-23 05:33N 52°34' E 003°53'96 7.9
2015-Mar-22 17:21N 54°03' E 004°51'285 8.7
2015-Mar-21 08:32N 58°48' E 005°17'9 8.8
2015-Mar-21 07:33N 58°57' E 005°18'9 9.0
2015-Mar-21 06:33N 59°06' E 005°19'1110.5
2015-Mar-21 05:29N 59°17' E 005°20'12 9.9
2015-Mar-21 04:17N 59°28' E 005°13'  

Dump ship's entire track history